createdAt,value
2022-11-15T00:01:02.672Z,20.60
2022-11-15T00:03:53.641Z,20.50
2022-11-15T00:06:42.253Z,20.50
2022-11-15T00:09:29.293Z,20.50
2022-11-15T00:12:16.823Z,20.40
2022-11-15T00:15:03.726Z,20.40
2022-11-15T00:17:51.972Z,20.50
2022-11-15T00:20:39.793Z,20.50
2022-11-15T00:23:28.535Z,20.50
2022-11-15T00:26:17.479Z,20.30
2022-11-15T00:29:05.099Z,20.30
2022-11-15T00:31:51.997Z,20.20
2022-11-15T00:34:39.345Z,20.20
2022-11-15T00:37:26.411Z,20.20
2022-11-15T00:40:15.480Z,20.10
2022-11-15T00:43:02.335Z,20.00
2022-11-15T00:45:49.677Z,20.00
2022-11-15T00:48:37.104Z,20.10
2022-11-15T00:51:24.602Z,20.20
2022-11-15T00:54:11.492Z,20.30
2022-11-15T00:57:00.391Z,20.30
2022-11-15T00:59:47.352Z,20.40
2022-11-15T01:02:35.116Z,20.40
2022-11-15T01:05:22.448Z,20.50
2022-11-15T01:08:15.017Z,20.40
2022-11-15T01:11:07.325Z,20.40
2022-11-15T01:13:57.282Z,20.30
2022-11-15T01:16:44.376Z,20.30
2022-11-15T01:19:31.882Z,20.30
2022-11-15T01:22:18.857Z,20.10
2022-11-15T01:25:06.824Z,20.10
2022-11-15T01:27:53.749Z,20.10
2022-11-15T01:30:42.570Z,20.20
2022-11-15T01:33:30.722Z,20.10
2022-11-15T01:36:24.702Z,20.10
2022-11-15T01:39:11.559Z,20.00
2022-11-15T01:41:59.210Z,20.00
2022-11-15T01:44:50.033Z,20.00
2022-11-15T01:47:44.308Z,19.90
2022-11-15T01:50:34.971Z,20.00
2022-11-15T01:53:27.202Z,19.90
2022-11-15T01:56:18.967Z,19.90
2022-11-15T01:59:10.612Z,20.00
2022-11-15T02:01:58.038Z,20.00
2022-11-15T02:04:49.440Z,19.90
2022-11-15T02:07:38.494Z,19.70
2022-11-15T02:10:27.271Z,19.70
2022-11-15T02:13:14.899Z,19.80
2022-11-15T02:16:11.291Z,19.80
2022-11-15T02:19:11.142Z,19.90
2022-11-15T02:22:17.075Z,20.00
2022-11-15T02:25:27.178Z,20.00
2022-11-15T02:28:46.264Z,19.80
2022-11-15T02:31:48.164Z,19.70
2022-11-15T02:34:50.717Z,19.70
2022-11-15T02:37:47.227Z,19.70
2022-11-15T02:40:48.216Z,19.60
2022-11-15T02:43:59.930Z,19.70
2022-11-15T02:47:13.816Z,19.60
2022-11-15T02:50:09.153Z,19.60
2022-11-15T02:52:57.743Z,19.60
2022-11-15T02:55:52.079Z,19.70
2022-11-15T02:59:11.167Z,19.70
2022-11-15T03:02:22.627Z,19.70
2022-11-15T03:05:22.566Z,19.70
2022-11-15T03:08:19.960Z,19.90
2022-11-15T03:11:14.729Z,20.00
2022-11-15T03:14:10.119Z,20.00
2022-11-15T03:17:08.973Z,20.10
2022-11-15T03:19:59.781Z,20.10
2022-11-15T03:22:51.538Z,20.20
2022-11-15T03:25:45.918Z,20.30
2022-11-15T03:28:40.484Z,20.30
2022-11-15T03:31:50.898Z,20.40
2022-11-15T03:39:31.468Z,20.40
2022-11-15T03:42:29.418Z,20.40
2022-11-15T03:45:24.605Z,20.40
2022-11-15T03:48:16.948Z,20.40
2022-11-15T03:51:06.540Z,20.30
2022-11-15T03:53:53.996Z,20.30
2022-11-15T03:56:42.576Z,20.40
2022-11-15T03:59:29.783Z,20.40
2022-11-15T04:02:17.736Z,20.40
2022-11-15T04:05:05.792Z,20.40
2022-11-15T04:07:52.842Z,20.40
2022-11-15T04:10:40.007Z,20.40
2022-11-15T04:13:28.946Z,20.50
2022-11-15T04:16:16.440Z,20.50
2022-11-15T04:19:21.458Z,20.40
2022-11-15T04:23:48.351Z,20.50
2022-11-15T04:26:36.686Z,20.40
2022-11-15T04:29:37.036Z,20.30
2022-11-15T04:32:24.206Z,20.30
2022-11-15T04:35:12.024Z,20.30
2022-11-15T04:38:00.714Z,20.40
2022-11-15T04:40:48.728Z,20.50
2022-11-15T04:43:36.145Z,20.50
2022-11-15T04:46:25.796Z,20.50
2022-11-15T04:49:13.154Z,20.30
2022-11-15T04:52:00.659Z,20.40
2022-11-15T04:59:37.797Z,20.50
2022-11-15T05:02:46.360Z,20.50
2022-11-15T05:05:32.890Z,20.60
2022-11-15T05:08:20.122Z,20.70
2022-11-15T05:11:08.021Z,20.70
2022-11-15T05:13:56.199Z,20.60
2022-11-15T05:16:44.045Z,20.60
2022-11-15T05:19:32.377Z,20.70
2022-11-15T05:22:20.263Z,20.70
2022-11-15T05:25:09.148Z,20.80
2022-11-15T05:27:57.085Z,20.80
2022-11-15T05:30:44.521Z,20.80
2022-11-15T05:33:33.274Z,20.70
2022-11-15T05:36:31.886Z,20.70
2022-11-15T05:39:19.085Z,20.70
2022-11-15T05:42:12.396Z,20.70
2022-11-15T05:46:38.440Z,20.60
2022-11-15T05:49:33.899Z,20.60
2022-11-15T05:52:27.622Z,20.50
2022-11-15T05:55:16.150Z,20.50
2022-11-15T05:58:03.732Z,20.40
2022-11-15T06:00:51.058Z,20.50
2022-11-15T06:03:38.496Z,20.50
2022-11-15T06:06:25.279Z,20.50
2022-11-15T06:09:13.889Z,20.50
2022-11-15T06:16:51.677Z,20.60
2022-11-15T06:19:38.889Z,20.60
2022-11-15T06:22:26.269Z,20.50
2022-11-15T06:25:14.772Z,20.50
2022-11-15T06:28:02.357Z,20.40
2022-11-15T06:30:53.069Z,20.40
2022-11-15T06:33:41.227Z,20.40
2022-11-15T06:36:28.229Z,20.30
2022-11-15T06:39:15.635Z,20.20
2022-11-15T06:42:03.790Z,20.20
2022-11-15T06:44:51.390Z,20.30
2022-11-15T06:47:46.585Z,20.30
2022-11-15T06:50:34.417Z,20.40
2022-11-15T06:53:22.361Z,20.30
2022-11-15T06:56:10.141Z,20.30
2022-11-15T06:58:59.197Z,20.40
2022-11-15T07:01:46.830Z,20.40
2022-11-15T07:04:34.229Z,20.40
2022-11-15T07:07:21.763Z,20.50
2022-11-15T07:10:10.688Z,20.50
2022-11-15T07:12:58.855Z,20.50
2022-11-15T07:15:47.545Z,20.40
2022-11-15T07:18:37.210Z,20.50
2022-11-15T07:21:27.551Z,20.50
2022-11-15T07:24:15.415Z,20.50
2022-11-15T07:27:02.625Z,20.70
2022-11-15T07:29:49.967Z,20.50
2022-11-15T07:32:38.493Z,20.50
2022-11-15T07:35:28.016Z,20.50
2022-11-15T07:38:15.909Z,20.30
2022-11-15T07:45:58.595Z,20.50
2022-11-15T07:48:47.707Z,20.60
2022-11-15T07:51:35.010Z,20.60
2022-11-15T07:59:14.056Z,20.70
2022-11-15T08:02:01.221Z,20.70
2022-11-15T08:04:49.935Z,20.80
2022-11-15T08:07:39.080Z,20.80
2022-11-15T08:10:27.047Z,20.90
2022-11-15T08:13:15.648Z,20.90
2022-11-15T08:16:06.528Z,21.00
2022-11-15T08:18:53.940Z,21.00
2022-11-15T08:21:43.211Z,21.10
2022-11-15T08:24:30.212Z,21.20
2022-11-15T08:27:17.581Z,21.10
2022-11-15T08:30:05.696Z,21.00
2022-11-15T08:32:55.577Z,21.00
2022-11-15T08:35:43.482Z,21.10
2022-11-15T08:38:32.540Z,21.00
2022-11-15T08:41:28.882Z,21.00
2022-11-15T08:44:16.146Z,21.00
2022-11-15T08:47:03.581Z,21.00
2022-11-15T08:49:51.041Z,21.00
2022-11-15T08:52:38.288Z,21.30
2022-11-15T08:55:27.167Z,21.20
2022-11-15T08:58:14.319Z,21.10
2022-11-15T09:01:01.866Z,21.10
2022-11-15T09:08:51.909Z,21.20
2022-11-15T09:11:40.743Z,21.30
2022-11-15T09:14:28.679Z,21.20
2022-11-15T09:17:19.143Z,21.10
2022-11-15T09:20:10.981Z,21.20
2022-11-15T09:23:02.936Z,21.30
2022-11-15T09:25:50.264Z,21.40
2022-11-15T09:28:42.795Z,21.30
2022-11-15T09:31:31.418Z,21.20
2022-11-15T09:34:18.625Z,21.40
2022-11-15T09:37:06.189Z,21.30
2022-11-15T09:39:53.469Z,20.90
2022-11-15T09:43:04.111Z,21.00
2022-11-15T09:46:08.672Z,21.20
2022-11-15T09:48:58.615Z,21.40
2022-11-15T09:51:48.534Z,21.40
2022-11-15T09:54:52.075Z,21.30
2022-11-15T09:57:26.515Z,21.30
2022-11-15T10:00:45.181Z,21.30
2022-11-15T10:03:13.355Z,21.30
2022-11-15T10:05:45.795Z,21.10
2022-11-15T10:08:42.886Z,21.10
2022-11-15T10:14:13.350Z,21.20
2022-11-15T10:17:33.197Z,21.30
2022-11-15T10:20:19.225Z,21.40
2022-11-15T10:22:52.488Z,21.50
2022-11-15T10:25:25.586Z,21.70
2022-11-15T10:28:01.320Z,21.70
2022-11-15T10:30:37.891Z,21.70
2022-11-15T10:33:24.589Z,21.80
2022-11-15T10:36:19.135Z,21.50
2022-11-15T10:38:59.913Z,21.80
2022-11-15T10:41:40.107Z,21.10
2022-11-15T10:44:26.307Z,21.10
2022-11-15T10:47:37.691Z,21.30
2022-11-15T10:50:29.700Z,21.40
2022-11-15T10:53:03.713Z,21.20
2022-11-15T10:55:35.274Z,21.40
2022-11-15T10:58:08.794Z,21.80
2022-11-15T11:00:40.696Z,20.70
2022-11-15T11:03:31.359Z,19.60
2022-11-15T11:06:10.264Z,20.00
2022-11-15T11:13:25.617Z,20.60
2022-11-15T11:16:11.127Z,20.80
2022-11-15T11:18:54.148Z,21.00
2022-11-15T11:21:40.412Z,21.20
2022-11-15T11:24:26.503Z,21.30
2022-11-15T11:27:19.724Z,21.40
2022-11-15T11:30:08.376Z,20.90
2022-11-15T11:32:56.702Z,19.90
2022-11-15T11:35:32.872Z,20.00
2022-11-15T11:38:21.897Z,19.90
2022-11-15T11:41:05.477Z,20.00
2022-11-15T11:43:57.488Z,20.20
2022-11-15T11:46:49.955Z,20.10
2022-11-15T11:49:27.158Z,20.00
2022-11-15T11:52:04.376Z,20.00
2022-11-15T11:54:42.304Z,20.10
2022-11-15T11:57:24.559Z,20.40
2022-11-15T12:00:02.941Z,20.80
2022-11-15T12:02:47.124Z,20.80
2022-11-15T12:05:28.538Z,21.00
2022-11-15T12:08:17.552Z,21.30
2022-11-15T12:10:53.333Z,21.40
2022-11-15T12:13:28.595Z,21.70
2022-11-15T12:16:18.312Z,22.00
2022-11-15T12:18:53.375Z,22.10
2022-11-15T12:21:37.751Z,22.20
2022-11-15T12:24:16.642Z,22.30
2022-11-15T12:26:54.530Z,22.10
2022-11-15T12:29:33.175Z,22.20
2022-11-15T12:32:04.730Z,22.30
2022-11-15T12:34:52.274Z,22.00
2022-11-15T12:37:50.705Z,21.70
2022-11-15T12:40:36.972Z,21.50
2022-11-15T12:43:41.886Z,21.60
2022-11-15T12:46:54.542Z,21.30
2022-11-15T12:49:49.435Z,21.60
2022-11-15T12:52:18.836Z,21.80
2022-11-15T12:55:06.197Z,21.80
2022-11-15T12:57:44.272Z,21.90
2022-11-15T13:00:49.518Z,22.00
2022-11-15T13:08:00.978Z,22.20
2022-11-15T13:10:35.427Z,22.00
2022-11-15T13:13:09.614Z,22.00
2022-11-15T13:15:58.505Z,22.10
2022-11-15T13:18:42.117Z,22.10
2022-11-15T13:21:43.157Z,22.30
2022-11-15T13:24:19.271Z,22.30
2022-11-15T13:26:48.225Z,22.40
2022-11-15T13:29:20.395Z,22.20
2022-11-15T13:31:50.690Z,22.10
2022-11-15T13:34:51.448Z,22.10
2022-11-15T13:37:34.430Z,22.20
2022-11-15T13:40:25.811Z,22.30
2022-11-15T13:42:54.498Z,22.20
2022-11-15T13:45:23.496Z,22.00
2022-11-15T13:47:58.890Z,22.00
2022-11-15T13:50:35.889Z,22.00
2022-11-15T13:53:07.160Z,22.20
2022-11-15T13:55:38.288Z,22.20
2022-11-15T13:58:07.684Z,22.30
2022-11-15T14:00:41.238Z,22.00
2022-11-15T14:03:20.919Z,21.80
2022-11-15T14:06:08.629Z,21.10
2022-11-15T14:08:37.923Z,20.70
2022-11-15T14:11:18.382Z,20.70
2022-11-15T14:14:14.818Z,20.70
2022-11-15T14:16:46.709Z,20.70
2022-11-15T14:19:37.830Z,20.70
2022-11-15T14:26:40.796Z,21.20
2022-11-15T14:29:26.760Z,21.40
2022-11-15T14:31:56.561Z,21.50
2022-11-15T14:34:25.610Z,21.60
2022-11-15T14:36:54.200Z,21.90
2022-11-15T14:39:25.106Z,22.00
2022-11-15T14:41:55.096Z,22.10
2022-11-15T14:48:57.688Z,22.20
2022-11-15T14:51:26.987Z,21.80
2022-11-15T14:53:56.396Z,21.80
2022-11-15T14:56:24.980Z,21.80
2022-11-15T14:58:56.013Z,21.80
2022-11-15T15:01:28.527Z,21.80
2022-11-15T15:08:28.772Z,21.90
2022-11-15T15:10:57.441Z,22.00
2022-11-15T15:13:26.987Z,22.10
2022-11-15T15:15:56.889Z,22.20
2022-11-15T15:18:25.829Z,22.20
2022-11-15T15:21:01.093Z,22.20
2022-11-15T15:23:32.128Z,22.20
2022-11-15T15:26:01.204Z,22.20
2022-11-15T15:33:02.852Z,22.20
2022-11-15T15:35:35.559Z,22.30
2022-11-15T15:38:05.094Z,22.30
2022-11-15T15:45:09.392Z,22.50
2022-11-15T15:47:39.401Z,22.30
2022-11-15T15:50:24.513Z,22.20
2022-11-15T15:52:54.485Z,22.10
2022-11-15T15:55:24.158Z,21.90
2022-11-15T15:57:53.125Z,21.40
2022-11-15T16:00:25.776Z,21.40
2022-11-15T16:02:55.378Z,21.40
2022-11-15T16:10:04.300Z,21.60
2022-11-15T16:12:35.413Z,21.60
2022-11-15T16:15:05.573Z,21.70
2022-11-15T16:17:39.664Z,21.80
2022-11-15T16:20:17.569Z,21.80
2022-11-15T16:22:46.281Z,21.90
2022-11-15T16:25:16.781Z,21.90
2022-11-15T16:27:46.031Z,22.00
2022-11-15T16:30:19.511Z,22.00
2022-11-15T16:32:48.471Z,22.10
2022-11-15T16:35:18.973Z,22.00
2022-11-15T16:37:48.395Z,21.90
2022-11-15T16:40:31.264Z,21.90
2022-11-15T16:43:02.994Z,21.90
2022-11-15T16:50:03.741Z,22.00
2022-11-15T16:52:32.415Z,22.00
2022-11-15T16:55:01.383Z,22.00
2022-11-15T16:57:31.423Z,22.00
2022-11-15T17:00:00.369Z,22.10
2022-11-15T17:02:28.955Z,22.00
2022-11-15T17:04:57.889Z,21.90
2022-11-15T17:07:26.474Z,21.90
2022-11-15T17:09:55.426Z,21.90
2022-11-15T17:16:57.287Z,22.00
2022-11-15T17:19:25.959Z,22.00
2022-11-15T17:21:54.867Z,22.00
2022-11-15T17:24:23.641Z,22.00
2022-11-15T17:31:25.449Z,22.10
2022-11-15T17:33:55.777Z,22.10
2022-11-15T17:36:24.495Z,22.10
2022-11-15T17:38:59.071Z,22.10
2022-11-15T17:46:01.852Z,21.90
2022-11-15T17:48:32.061Z,22.10
2022-11-15T17:55:35.577Z,21.80
2022-11-15T17:58:04.239Z,21.80
2022-11-15T18:00:33.310Z,21.70
2022-11-15T18:03:02.135Z,21.70
2022-11-15T18:05:31.107Z,21.70
2022-11-15T18:07:59.835Z,21.70
2022-11-15T18:10:28.895Z,21.60
2022-11-15T18:12:58.968Z,21.50
2022-11-15T18:15:27.930Z,21.50
2022-11-15T18:18:00.763Z,21.50
2022-11-15T18:20:30.193Z,21.60
2022-11-15T18:22:58.833Z,21.60
2022-11-15T18:25:27.735Z,21.60
2022-11-15T18:27:56.423Z,21.70
2022-11-15T18:30:26.772Z,21.70
2022-11-15T18:32:56.174Z,21.70
2022-11-15T18:35:25.072Z,21.70
2022-11-15T18:37:55.957Z,21.80
2022-11-15T18:40:24.929Z,21.80
2022-11-15T18:42:55.016Z,21.80
2022-11-15T18:45:24.308Z,21.90
2022-11-15T18:47:54.460Z,21.90
2022-11-15T18:50:23.346Z,21.90
2022-11-15T18:52:51.902Z,22.00
2022-11-15T18:55:20.838Z,21.90
2022-11-15T18:57:49.412Z,21.90
2022-11-15T19:00:20.265Z,21.80
2022-11-15T19:02:48.861Z,21.80
2022-11-15T19:05:21.486Z,21.70
2022-11-15T19:07:50.314Z,21.70
2022-11-15T19:10:19.351Z,21.70
2022-11-15T19:12:49.434Z,21.70
2022-11-15T19:15:18.498Z,21.70
2022-11-15T19:17:47.109Z,21.60
2022-11-15T19:20:16.382Z,21.50
2022-11-15T19:22:46.343Z,21.60
2022-11-15T19:25:15.277Z,21.50
2022-11-15T19:27:43.902Z,21.60
2022-11-15T19:30:14.304Z,21.50
2022-11-15T19:32:42.913Z,21.40
2022-11-15T19:35:11.885Z,21.50
2022-11-15T19:37:40.474Z,21.30
2022-11-15T19:40:12.249Z,21.30
2022-11-15T19:42:41.318Z,21.20
2022-11-15T19:45:11.939Z,20.50
2022-11-15T19:47:40.639Z,20.60
2022-11-15T19:50:10.760Z,20.60
2022-11-15T19:52:39.371Z,20.70
2022-11-15T19:55:11.058Z,20.70
2022-11-15T19:57:39.807Z,20.80
2022-11-15T20:00:10.889Z,20.80
2022-11-15T20:02:39.663Z,20.80
2022-11-15T20:05:12.901Z,20.90
2022-11-15T20:07:44.366Z,20.90
2022-11-15T20:10:19.588Z,21.00
2022-11-15T20:12:49.444Z,21.00
2022-11-15T20:15:18.617Z,21.00
2022-11-15T20:17:47.383Z,21.00
2022-11-15T20:20:17.212Z,21.00
2022-11-15T20:22:46.031Z,21.00
2022-11-15T20:25:16.544Z,21.10
2022-11-15T20:27:45.348Z,21.10
2022-11-15T20:30:14.683Z,21.10
2022-11-15T20:32:43.412Z,21.20
2022-11-15T20:35:12.332Z,21.20
2022-11-15T20:37:40.992Z,21.30
2022-11-15T20:41:52.557Z,21.40
2022-11-15T20:48:56.588Z,21.10
2022-11-15T20:51:25.223Z,21.10
2022-11-15T20:53:54.200Z,21.10
2022-11-15T20:56:24.356Z,21.10
2022-11-15T20:58:53.463Z,21.20
2022-11-15T21:01:27.287Z,21.10
2022-11-15T21:03:58.287Z,21.10
2022-11-15T21:06:28.385Z,21.20
2022-11-15T21:13:28.822Z,20.50
2022-11-15T21:15:58.658Z,20.60
2022-11-15T21:18:27.295Z,20.60
2022-11-15T21:21:02.646Z,20.30
2022-11-15T21:23:31.284Z,20.20
2022-11-15T21:26:00.474Z,20.10
2022-11-15T21:28:29.044Z,20.20
2022-11-15T21:31:00.456Z,20.30
2022-11-15T21:33:29.442Z,20.40
2022-11-15T21:35:59.736Z,20.50
2022-11-15T21:38:30.352Z,20.50
2022-11-15T21:41:04.463Z,20.50
2022-11-15T21:43:33.550Z,20.60
2022-11-15T21:46:06.556Z,20.60
2022-11-15T21:48:37.012Z,20.60
2022-11-15T21:51:11.322Z,20.40
2022-11-15T21:53:39.973Z,20.40
2022-11-15T21:56:11.906Z,20.40
2022-11-15T21:58:42.138Z,20.50
2022-11-15T22:01:30.437Z,20.50
2022-11-15T22:03:59.228Z,20.60
2022-11-15T22:06:29.557Z,20.60
2022-11-15T22:08:58.493Z,20.70
2022-11-15T22:11:27.420Z,20.70
2022-11-15T22:13:56.477Z,20.70
2022-11-15T22:16:25.412Z,20.80
2022-11-15T22:18:54.187Z,20.80
2022-11-15T22:21:23.429Z,20.80
2022-11-15T22:23:53.470Z,20.80
2022-11-15T22:26:24.052Z,20.80
2022-11-15T22:28:53.431Z,20.80
2022-11-15T22:31:22.326Z,20.80
2022-11-15T22:33:51.114Z,20.80
2022-11-15T22:36:20.168Z,20.80
2022-11-15T22:38:48.862Z,20.80
2022-11-15T22:41:19.165Z,20.80
2022-11-15T22:43:48.398Z,20.90
2022-11-15T22:46:17.439Z,21.00
2022-11-15T22:48:46.062Z,20.90
2022-11-15T22:51:15.070Z,20.90
2022-11-15T22:53:43.725Z,21.00
2022-11-15T22:56:15.160Z,21.00
2022-11-15T22:58:49.124Z,20.90
2022-11-15T23:05:50.595Z,20.90
2022-11-15T23:08:20.497Z,21.00
2022-11-15T23:11:06.698Z,21.00
2022-11-15T23:13:35.772Z,21.00
2022-11-15T23:16:26.006Z,21.10
2022-11-15T23:18:58.765Z,21.10
2022-11-15T23:21:47.374Z,21.10
2022-11-15T23:24:18.389Z,21.10
2022-11-15T23:26:49.504Z,21.00
2022-11-15T23:29:21.684Z,21.00
2022-11-15T23:32:09.736Z,21.00
2022-11-15T23:34:42.295Z,21.00
2022-11-15T23:37:13.493Z,21.00
2022-11-15T23:39:42.590Z,21.00
2022-11-15T23:42:19.799Z,21.00
2022-11-15T23:44:50.744Z,21.00
2022-11-15T23:47:21.324Z,21.00
2022-11-15T23:49:50.600Z,21.10
2022-11-15T23:52:19.444Z,21.10
2022-11-15T23:54:48.402Z,21.00
2022-11-15T23:57:17.024Z,21.10
2022-11-15T23:59:45.954Z,21.10
